sensor_id;sensor_type;location;lat;lon;timestamp;pressure;altitude;pressure_sealevel;temperature
49567;BMP280;35472;50.514;30.448;2024-01-15T00:00:43;98350.69;;;1.02
49567;BMP280;35472;50.514;30.448;2024-01-15T00:03:09;98346.66;;;1.19
49567;BMP280;35472;50.514;30.448;2024-01-15T00:05:35;98345.50;;;1.16
49567;BMP280;35472;50.514;30.448;2024-01-15T00:08:00;98339.94;;;1.36
49567;BMP280;35472;50.514;30.448;2024-01-15T00:10:26;98345.50;;;1.16
49567;BMP280;35472;50.514;30.448;2024-01-15T00:12:53;98339.44;;;1.16
49567;BMP280;35472;50.514;30.448;2024-01-15T00:15:18;98333.34;;;1.08
49567;BMP280;35472;50.514;30.448;2024-01-15T00:17:43;98336.00;;;1.08
49567;BMP280;35472;50.514;30.448;2024-01-15T00:20:10;98337.22;;;1.25
49567;BMP280;35472;50.514;30.448;2024-01-15T00:22:35;98335.63;;;1.10
49567;BMP280;35472;50.514;30.448;2024-01-15T00:25:02;98340.28;;;1.23
49567;BMP280;35472;50.514;30.448;2024-01-15T00:27:29;98343.22;;;1.11
49567;BMP280;35472;50.514;30.448;2024-01-15T00:29:54;98344.75;;;1.12
49567;BMP280;35472;50.514;30.448;2024-01-15T00:32:20;98339.72;;;1.00
49567;BMP280;35472;50.514;30.448;2024-01-15T00:34:49;98334.16;;;1.16
49567;BMP280;35472;50.514;30.448;2024-01-15T00:37:15;98332.94;;;1.03
49567;BMP280;35472;50.514;30.448;2024-01-15T00:39:40;98333.34;;;1.05
49567;BMP280;35472;50.514;30.448;2024-01-15T00:42:06;98334.28;;;0.82
49567;BMP280;35472;50.514;30.448;2024-01-15T00:44:31;98339.22;;;0.84
49567;BMP280;35472;50.514;30.448;2024-01-15T00:46:56;98340.81;;;0.92
49567;BMP280;35472;50.514;30.448;2024-01-15T00:49:22;98343.22;;;1.15
49567;BMP280;35472;50.514;30.448;2024-01-15T00:51:47;98335.22;;;1.04
49567;BMP280;35472;50.514;30.448;2024-01-15T00:54:13;98346.94;;;1.03
49567;BMP280;35472;50.514;30.448;2024-01-15T00:56:38;98329.78;;;0.87
49567;BMP280;35472;50.514;30.448;2024-01-15T00:59:03;98332.38;;;0.79
49567;BMP280;35472;50.514;30.448;2024-01-15T01:01:29;98335.09;;;0.90
49567;BMP280;35472;50.514;30.448;2024-01-15T01:03:54;98330.56;;;0.87
49567;BMP280;35472;50.514;30.448;2024-01-15T01:06:20;98323.22;;;0.70
49567;BMP280;35472;50.514;30.448;2024-01-15T01:08:46;98318.88;;;0.92
49567;BMP280;35472;50.514;30.448;2024-01-15T01:11:15;98318.88;;;0.92
49567;BMP280;35472;50.514;30.448;2024-01-15T01:13:41;98321.53;;;0.95
49567;BMP280;35472;50.514;30.448;2024-01-15T01:16:06;98332.84;;;0.92
49567;BMP280;35472;50.514;30.448;2024-01-15T01:18:32;98323.41;;;0.95
49567;BMP280;35472;50.514;30.448;2024-01-15T01:20:57;98325.97;;;0.80
49567;BMP280;35472;50.514;30.448;2024-01-15T01:23:22;98333.63;;;0.96
49567;BMP280;35472;50.514;30.448;2024-01-15T01:25:48;98327.19;;;0.94
49567;BMP280;35472;50.514;30.448;2024-01-15T01:28:13;98325.97;;;0.84
49567;BMP280;35472;50.514;30.448;2024-01-15T01:30:38;98332.16;;;0.99
49567;BMP280;35472;50.514;30.448;2024-01-15T01:33:04;98326.47;;;1.00
49567;BMP280;35472;50.514;30.448;2024-01-15T01:35:34;98324.78;;;0.74
49567;BMP280;35472;50.514;30.448;2024-01-15T01:37:59;98326.81;;;0.92
49567;BMP280;35472;50.514;30.448;2024-01-15T01:40:24;98324.50;;;0.87
49567;BMP280;35472;50.514;30.448;2024-01-15T01:42:50;98329.97;;;0.64
49567;BMP280;35472;50.514;30.448;2024-01-15T01:45:15;98325.53;;;0.75
49567;BMP280;35472;50.514;30.448;2024-01-15T01:47:41;98322.94;;;0.82
49567;BMP280;35472;50.514;30.448;2024-01-15T01:50:06;98331.63;;;0.79
49567;BMP280;35472;50.514;30.448;2024-01-15T01:52:32;98331.63;;;0.79
49567;BMP280;35472;50.514;30.448;2024-01-15T01:55:00;98331.97;;;0.77
49567;BMP280;35472;50.514;30.448;2024-01-15T01:57:26;98326.25;;;0.72
49567;BMP280;35472;50.514;30.448;2024-01-15T01:59:53;98323.34;;;0.84
49567;BMP280;35472;50.514;30.448;2024-01-15T02:02:19;98319.97;;;0.91
49567;BMP280;35472;50.514;30.448;2024-01-15T02:04:47;98331.97;;;0.74
49567;BMP280;35472;50.514;30.448;2024-01-15T02:07:13;98334.50;;;0.63
49567;BMP280;35472;50.514;30.448;2024-01-15T02:09:38;98323.97;;;0.67
49567;BMP280;35472;50.514;30.448;2024-01-15T02:12:04;98324.72;;;0.67
49567;BMP280;35472;50.514;30.448;2024-01-15T02:14:29;98317.84;;;0.59
49567;BMP280;35472;50.514;30.448;2024-01-15T02:16:55;98328.13;;;0.68
49567;BMP280;35472;50.514;30.448;2024-01-15T02:19:20;98320.41;;;0.52
49567;BMP280;35472;50.514;30.448;2024-01-15T02:21:46;98317.91;;;0.66
49567;BMP280;35472;50.514;30.448;2024-01-15T02:24:11;98327.03;;;0.76
49567;BMP280;35472;50.514;30.448;2024-01-15T02:26:37;98324.34;;;0.69
49567;BMP280;35472;50.514;30.448;2024-01-15T02:29:05;98320.16;;;0.64
49567;BMP280;35472;50.514;30.448;2024-01-15T02:31:31;98322.38;;;0.59
49567;BMP280;35472;50.514;30.448;2024-01-15T02:33:57;98316.41;;;0.69
49567;BMP280;35472;50.514;30.448;2024-01-15T02:36:22;98327.38;;;0.71
49567;BMP280;35472;50.514;30.448;2024-01-15T02:38:48;98324.03;;;0.77
49567;BMP280;35472;50.514;30.448;2024-01-15T02:41:13;98330.38;;;0.66
49567;BMP280;35472;50.514;30.448;2024-01-15T02:43:40;98332.25;;;0.65
49567;BMP280;35472;50.514;30.448;2024-01-15T02:46:06;98329.69;;;0.76
49567;BMP280;35472;50.514;30.448;2024-01-15T02:48:31;98323.91;;;0.60
49567;BMP280;35472;50.514;30.448;2024-01-15T02:50:57;98330.03;;;0.71
49567;BMP280;35472;50.514;30.448;2024-01-15T02:53:23;98329.59;;;0.62
49567;BMP280;35472;50.514;30.448;2024-01-15T02:55:48;98316.78;;;0.67
49567;BMP280;35472;50.514;30.448;2024-01-15T02:58:14;98320.13;;;0.61
49567;BMP280;35472;50.514;30.448;2024-01-15T03:00:39;98309.53;;;0.61
49567;BMP280;35472;50.514;30.448;2024-01-15T03:03:07;98317.97;;;0.73
49567;BMP280;35472;50.514;30.448;2024-01-15T03:05:32;98316.31;;;0.58
49567;BMP280;35472;50.514;30.448;2024-01-15T03:07:57;98321.72;;;0.72
49567;BMP280;35472;50.514;30.448;2024-01-15T03:10:23;98319.50;;;0.74
49567;BMP280;35472;50.514;30.448;2024-01-15T03:12:48;98313.88;;;0.83
49567;BMP280;35472;50.514;30.448;2024-01-15T03:15:13;98319.44;;;0.67
49567;BMP280;35472;50.514;30.448;2024-01-15T03:17:41;98316.84;;;0.78
49567;BMP280;35472;50.514;30.448;2024-01-15T03:20:07;98320.59;;;0.73
49567;BMP280;35472;50.514;30.448;2024-01-15T03:22:32;98318.16;;;0.98
49567;BMP280;35472;50.514;30.448;2024-01-15T03:24:58;98306.63;;;0.76
49567;BMP280;35472;50.514;30.448;2024-01-15T03:27:23;98305.56;;;0.85
49567;BMP280;35472;50.514;30.448;2024-01-15T03:29:48;98306.22;;;0.71
49567;BMP280;35472;50.514;30.448;2024-01-15T03:32:14;98311.16;;;0.76
49567;BMP280;35472;50.514;30.448;2024-01-15T03:34:41;98316.44;;;0.76
49567;BMP280;35472;50.514;30.448;2024-01-15T03:37:06;98309.19;;;0.62
49567;BMP280;35472;50.514;30.448;2024-01-15T03:39:31;98314.78;;;0.54
49567;BMP280;35472;50.514;30.448;2024-01-15T03:41:57;98309.06;;;0.52
49567;BMP280;35472;50.514;30.448;2024-01-15T03:44:26;98307.63;;;0.58
49567;BMP280;35472;50.514;30.448;2024-01-15T03:46:51;98317.13;;;0.66
49567;BMP280;35472;50.514;30.448;2024-01-15T03:49:16;98317.97;;;0.73
49567;BMP280;35472;50.514;30.448;2024-01-15T03:51:41;98310.19;;;0.51
49567;BMP280;35472;50.514;30.448;2024-01-15T03:54:07;98308.38;;;0.58
49567;BMP280;35472;50.514;30.448;2024-01-15T03:56:32;98301.13;;;0.48
49567;BMP280;35472;50.514;30.448;2024-01-15T03:59:00;98308.50;;;0.25
49567;BMP280;35472;50.514;30.448;2024-01-15T04:01:25;98320.66;;;0.36
49567;BMP280;35472;50.514;30.448;2024-01-15T04:03:51;98321.66;;;0.21
49567;BMP280;35472;50.514;30.448;2024-01-15T04:06:16;98314.56;;;0.32
49567;BMP280;35472;50.514;30.448;2024-01-15T04:08:41;98323.94;;;0.23
49567;BMP280;35472;50.514;30.448;2024-01-15T04:11:07;98332.38;;;0.35
49567;BMP280;35472;50.514;30.448;2024-01-15T04:13:33;98326.53;;;0.19
49567;BMP280;35472;50.514;30.448;2024-01-15T04:16:00;98328.50;;;0.26
49567;BMP280;35472;50.514;30.448;2024-01-15T04:18:25;98328.50;;;0.26
49567;BMP280;35472;50.514;30.448;2024-01-15T04:20:51;98324.41;;;0.32
49567;BMP280;35472;50.514;30.448;2024-01-15T04:23:16;98334.22;;;0.31
49567;BMP280;35472;50.514;30.448;2024-01-15T04:25:41;98330.28;;;0.15
49567;BMP280;35472;50.514;30.448;2024-01-15T04:28:12;98326.09;;;0.14
49567;BMP280;35472;50.514;30.448;2024-01-15T04:30:37;98328.84;;;0.21
49567;BMP280;35472;50.514;30.448;2024-01-15T04:33:03;98335.91;;;0.13
49567;BMP280;35472;50.514;30.448;2024-01-15T04:35:30;98333.16;;;0.03
49567;BMP280;35472;50.514;30.448;2024-01-15T04:37:55;98337.09;;;0.16
49567;BMP280;35472;50.514;30.448;2024-01-15T04:40:21;98337.38;;;0.07
49567;BMP280;35472;50.514;30.448;2024-01-15T04:42:46;98345.31;;;0.07
49567;BMP280;35472;50.514;30.448;2024-01-15T04:45:11;98344.47;;;-0.01
49567;BMP280;35472;50.514;30.448;2024-01-15T04:47:39;98353.53;;;-0.02
49567;BMP280;35472;50.514;30.448;2024-01-15T04:50:05;98355.75;;;-0.04
49567;BMP280;35472;50.514;30.448;2024-01-15T04:52:31;98352.34;;;-0.04
49567;BMP280;35472;50.514;30.448;2024-01-15T04:54:56;98359.53;;;-0.05
49567;BMP280;35472;50.514;30.448;2024-01-15T04:57:21;98342.78;;;-0.16
49567;BMP280;35472;50.514;30.448;2024-01-15T04:59:47;98356.44;;;-0.10
49567;BMP280;35472;50.514;30.448;2024-01-15T05:02:12;98348.69;;;0.04
49567;BMP280;35472;50.514;30.448;2024-01-15T05:04:40;98351.66;;;0.03
49567;BMP280;35472;50.514;30.448;2024-01-15T05:07:05;98349.28;;;-0.10
49567;BMP280;35472;50.514;30.448;2024-01-15T05:09:30;98358.16;;;0.09
49567;BMP280;35472;50.514;30.448;2024-01-15T05:11:56;98369.50;;;0.09
49567;BMP280;35472;50.514;30.448;2024-01-15T05:14:21;98362.13;;;-0.08
49567;BMP280;35472;50.514;30.448;2024-01-15T05:16:47;98357.81;;;0.10
49567;BMP280;35472;50.514;30.448;2024-01-15T05:19:13;98353.28;;;0.11
49567;BMP280;35472;50.514;30.448;2024-01-15T05:21:38;98346.66;;;-0.06
49567;BMP280;35472;50.514;30.448;2024-01-15T05:24:03;98349.78;;;0.03
49567;BMP280;35472;50.514;30.448;2024-01-15T05:26:29;98335.03;;;-0.02
49567;BMP280;35472;50.514;30.448;2024-01-15T05:28:54;98337.25;;;-0.04
49567;BMP280;35472;50.514;30.448;2024-01-15T05:31:23;98343.66;;;-0.05
49567;BMP280;35472;50.514;30.448;2024-01-15T05:33:48;98344.50;;;0.03
49567;BMP280;35472;50.514;30.448;2024-01-15T05:36:13;98343.13;;;-0.17
49567;BMP280;35472;50.514;30.448;2024-01-15T05:38:39;98346.53;;;-0.17
49567;BMP280;35472;50.514;30.448;2024-01-15T05:41:05;98350.22;;;0.05
49567;BMP280;35472;50.514;30.448;2024-01-15T05:43:31;98347.50;;;0.02
49567;BMP280;35472;50.514;30.448;2024-01-15T05:45:56;98359.66;;;0.06
49567;BMP280;35472;50.514;30.448;2024-01-15T05:48:21;98360.38;;;0.03
49567;BMP280;35472;50.514;30.448;2024-01-15T05:50:47;98364.19;;;0.06
49567;BMP280;35472;50.514;30.448;2024-01-15T05:53:12;98358.94;;;0.09
49567;BMP280;35472;50.514;30.448;2024-01-15T05:55:38;98375.56;;;0.10
49567;BMP280;35472;50.514;30.448;2024-01-15T05:58:04;98376.00;;;0.15
49567;BMP280;35472;50.514;30.448;2024-01-15T06:00:29;98366.97;;;0.20
49567;BMP280;35472;50.514;30.448;2024-01-15T06:02:56;98367.44;;;0.32
49567;BMP280;35472;50.514;30.448;2024-01-15T06:05:22;98362.81;;;0.19
49567;BMP280;35472;50.514;30.448;2024-01-15T06:07:49;98349.66;;;0.26
49567;BMP280;35472;50.514;30.448;2024-01-15T06:10:15;98365.06;;;0.17
49567;BMP280;35472;50.514;30.448;2024-01-15T06:12:40;98353.53;;;0.35
49567;BMP280;35472;50.514;30.448;2024-01-15T06:15:05;98366.69;;;0.28
49567;BMP280;35472;50.514;30.448;2024-01-15T06:17:31;98365.22;;;0.31
49567;BMP280;35472;50.514;30.448;2024-01-15T06:19:56;98362.56;;;0.31
49567;BMP280;35472;50.514;30.448;2024-01-15T06:22:22;98362.16;;;0.32
49567;BMP280;35472;50.514;30.448;2024-01-15T06:24:47;98368.63;;;0.35
49567;BMP280;35472;50.514;30.448;2024-01-15T06:27:12;98359.25;;;0.45
49567;BMP280;35472;50.514;30.448;2024-01-15T06:29:38;98366.06;;;0.42
49567;BMP280;35472;50.514;30.448;2024-01-15T06:32:04;98370.69;;;0.52
49567;BMP280;35472;50.514;30.448;2024-01-15T06:34:30;98377.94;;;0.59
49567;BMP280;35472;50.514;30.448;2024-01-15T06:36:55;98379.63;;;0.40
49567;BMP280;35472;50.514;30.448;2024-01-15T06:39:22;98383.28;;;0.62
49567;BMP280;35472;50.514;30.448;2024-01-15T06:41:48;98372.88;;;0.43
49567;BMP280;35472;50.514;30.448;2024-01-15T06:44:13;98381.66;;;0.54
49567;BMP280;35472;50.514;30.448;2024-01-15T06:46:42;98382.38;;;0.51
49567;BMP280;35472;50.514;30.448;2024-01-15T06:49:07;98372.91;;;0.50
49567;BMP280;35472;50.514;30.448;2024-01-15T06:51:33;98378.34;;;0.64
49567;BMP280;35472;50.514;30.448;2024-01-15T06:53:58;98378.78;;;0.70
49567;BMP280;35472;50.514;30.448;2024-01-15T06:56:31;98376.75;;;0.53
49567;BMP280;35472;50.514;30.448;2024-01-15T06:58:59;98372.31;;;0.64
49567;BMP280;35472;50.514;30.448;2024-01-15T07:01:24;98367.47;;;0.73
49567;BMP280;35472;50.514;30.448;2024-01-15T07:03:50;98365.38;;;0.52
49567;BMP280;35472;50.514;30.448;2024-01-15T07:06:15;98363.25;;;0.65
49567;BMP280;35472;50.514;30.448;2024-01-15T07:08:43;98360.91;;;0.56
49567;BMP280;35472;50.514;30.448;2024-01-15T07:11:08;98374.03;;;0.86
49567;BMP280;35472;50.514;30.448;2024-01-15T07:13:34;98371.66;;;0.74
49567;BMP280;35472;50.514;30.448;2024-01-15T07:16:01;98368.31;;;0.80
49567;BMP280;35472;50.514;30.448;2024-01-15T07:18:26;98359.19;;;0.78
49567;BMP280;35472;50.514;30.448;2024-01-15T07:20:51;98361.50;;;0.79
49567;BMP280;35472;50.514;30.448;2024-01-15T07:23:17;98361.22;;;0.92
49567;BMP280;35472;50.514;30.448;2024-01-15T07:25:43;98349.50;;;0.93
49567;BMP280;35472;50.514;30.448;2024-01-15T07:28:08;98350.53;;;0.81
49567;BMP280;35472;50.514;30.448;2024-01-15T07:30:33;98354.41;;;0.94
49567;BMP280;35472;50.514;30.448;2024-01-15T07:32:59;98356.25;;;0.87
49567;BMP280;35472;50.514;30.448;2024-01-15T07:35:24;98349.22;;;1.05
49567;BMP280;35472;50.514;30.448;2024-01-15T07:37:49;98352.09;;;0.86
49567;BMP280;35472;50.514;30.448;2024-01-15T07:40:15;98351.44;;;0.99
49567;BMP280;35472;50.514;30.448;2024-01-15T07:42:41;98341.63;;;1.00
49567;BMP280;35472;50.514;30.448;2024-01-15T07:45:08;98345.16;;;1.18
49567;BMP280;35472;50.514;30.448;2024-01-15T07:47:33;98345.06;;;1.07
49567;BMP280;35472;50.514;30.448;2024-01-15T07:49:59;98342.75;;;0.99
49567;BMP280;35472;50.514;30.448;2024-01-15T07:52:24;98334.41;;;1.00
49567;BMP280;35472;50.514;30.448;2024-01-15T07:54:49;98335.94;;;1.01
49567;BMP280;35472;50.514;30.448;2024-01-15T07:57:15;98337.56;;;1.20
49567;BMP280;35472;50.514;30.448;2024-01-15T07:59:40;98330.16;;;1.50
49567;BMP280;35472;50.514;30.448;2024-01-15T08:02:05;98332.94;;;1.72
49567;BMP280;35472;50.514;30.448;2024-01-15T08:04:31;98334.44;;;1.76
49567;BMP280;35472;50.514;30.448;2024-01-15T08:06:56;98329.75;;;1.45
49567;BMP280;35472;50.514;30.448;2024-01-15T08:09:22;98323.03;;;1.61
49567;BMP280;35472;50.514;30.448;2024-01-15T08:11:47;98319.50;;;1.36
49567;BMP280;35472;50.514;30.448;2024-01-15T08:14:14;98328.03;;;1.77
49567;BMP280;35472;50.514;30.448;2024-01-15T08:16:39;98331.72;;;1.58
49567;BMP280;35472;50.514;30.448;2024-01-15T08:19:05;98324.41;;;1.38
49567;BMP280;35472;50.514;30.448;2024-01-15T08:21:31;98320.41;;;1.61
49567;BMP280;35472;50.514;30.448;2024-01-15T08:24:00;98330.69;;;1.88
49567;BMP280;35472;50.514;30.448;2024-01-15T08:26:25;98316.34;;;2.06
49567;BMP280;35472;50.514;30.448;2024-01-15T08:28:51;98321.88;;;1.62
49567;BMP280;35472;50.514;30.448;2024-01-15T08:31:16;98324.22;;;1.71
49567;BMP280;35472;50.514;30.448;2024-01-15T08:33:42;98318.94;;;1.82
49567;BMP280;35472;50.514;30.448;2024-01-15T08:36:09;98323.13;;;1.79
49567;BMP280;35472;50.514;30.448;2024-01-15T08:38:34;98312.38;;;1.51
49567;BMP280;35472;50.514;30.448;2024-01-15T08:41:00;98328.28;;;1.51
49567;BMP280;35472;50.514;30.448;2024-01-15T08:43:26;98338.28;;;1.89
49567;BMP280;35472;50.514;30.448;2024-01-15T08:45:52;98340.16;;;1.89
49567;BMP280;35472;50.514;30.448;2024-01-15T08:48:17;98333.69;;;1.72
49567;BMP280;35472;50.514;30.448;2024-01-15T08:50:43;98334.91;;;2.06
49567;BMP280;35472;50.514;30.448;2024-01-15T08:53:11;98330.72;;;1.95
49567;BMP280;35472;50.514;30.448;2024-01-15T08:55:39;98317.09;;;1.96
49567;BMP280;35472;50.514;30.448;2024-01-15T08:58:04;98314.09;;;2.05
49567;BMP280;35472;50.514;30.448;2024-01-15T09:00:30;98320.94;;;2.38
49567;BMP280;35472;50.514;30.448;2024-01-15T09:02:59;98321.22;;;1.94
49567;BMP280;35472;50.514;30.448;2024-01-15T09:05:25;98319.34;;;1.91
49567;BMP280;35472;50.514;30.448;2024-01-15T09:07:50;98314.88;;;2.27
49567;BMP280;35472;50.514;30.448;2024-01-15T09:10:17;98318.25;;;2.13
49567;BMP280;35472;50.514;30.448;2024-01-15T09:12:43;98309.59;;;2.27
49567;BMP280;35472;50.514;30.448;2024-01-15T09:15:08;98303.88;;;2.21
49567;BMP280;35472;50.514;30.448;2024-01-15T09:17:36;98305.44;;;2.43
49567;BMP280;35472;50.514;30.448;2024-01-15T09:20:03;98295.16;;;2.14
49567;BMP280;35472;50.514;30.448;2024-01-15T09:22:31;98296.69;;;2.25
49567;BMP280;35472;50.514;30.448;2024-01-15T09:24:59;98289.88;;;2.53
49567;BMP280;35472;50.514;30.448;2024-01-15T09:27:25;98287.59;;;2.40
49567;BMP280;35472;50.514;30.448;2024-01-15T09:29:53;98279.97;;;2.03
49567;BMP280;35472;50.514;30.448;2024-01-15T09:32:19;98271.63;;;1.98
49567;BMP280;35472;50.514;30.448;2024-01-15T09:34:46;98275.47;;;2.25
49567;BMP280;35472;50.514;30.448;2024-01-15T09:37:12;98270.53;;;2.41
49567;BMP280;35472;50.514;30.448;2024-01-15T09:39:37;98273.19;;;2.45
49567;BMP280;35472;50.514;30.448;2024-01-15T09:42:03;98272.06;;;2.53
49567;BMP280;35472;50.514;30.448;2024-01-15T09:44:29;98266.72;;;2.78
49567;BMP280;35472;50.514;30.448;2024-01-15T09:46:55;98266.38;;;2.55
49567;BMP280;35472;50.514;30.448;2024-01-15T09:49:21;98265.19;;;2.70
49567;BMP280;35472;50.514;30.448;2024-01-15T09:51:47;98262.47;;;2.94
49567;BMP280;35472;50.514;30.448;2024-01-15T09:54:12;98260.28;;;2.68
49567;BMP280;35472;50.514;30.448;2024-01-15T09:56:40;98254.94;;;2.75
49567;BMP280;35472;50.514;30.448;2024-01-15T09:59:06;98251.91;;;2.84
49567;BMP280;35472;50.514;30.448;2024-01-15T10:01:32;98257.22;;;2.84
49567;BMP280;35472;50.514;30.448;2024-01-15T10:03:59;98249.91;;;3.20
49567;BMP280;35472;50.514;30.448;2024-01-15T10:06:26;98250.34;;;2.97
49567;BMP280;35472;50.514;30.448;2024-01-15T10:08:56;98247.75;;;2.86
49567;BMP280;35472;50.514;30.448;2024-01-15T10:11:23;98244.66;;;2.95
49567;BMP280;35472;50.514;30.448;2024-01-15T10:13:49;98242.75;;;3.03
49567;BMP280;35472;50.514;30.448;2024-01-15T10:16:19;98247.69;;;2.93
49567;BMP280;35472;50.514;30.448;2024-01-15T10:18:44;98242.06;;;2.81
49567;BMP280;35472;50.514;30.448;2024-01-15T10:21:09;98230.63;;;2.98
49567;BMP280;35472;50.514;30.448;2024-01-15T10:23:35;98222.69;;;2.84
49567;BMP280;35472;50.514;30.448;2024-01-15T10:26:02;98223.53;;;2.45
49567;BMP280;35472;50.514;30.448;2024-01-15T10:28:27;98221.88;;;2.94
49567;BMP280;35472;50.514;30.448;2024-01-15T10:30:56;98232.59;;;2.80
49567;BMP280;35472;50.514;30.448;2024-01-15T10:33:22;98214.63;;;3.12
49567;BMP280;35472;50.514;30.448;2024-01-15T10:35:55;98215.38;;;3.13
49567;BMP280;35472;50.514;30.448;2024-01-15T10:38:22;98220.34;;;3.07
49567;BMP280;35472;50.514;30.448;2024-01-15T10:40:51;98219.94;;;3.12
49567;BMP280;35472;50.514;30.448;2024-01-15T10:43:17;98213.50;;;3.06
49567;BMP280;35472;50.514;30.448;2024-01-15T10:45:46;98216.56;;;3.12
49567;BMP280;35472;50.514;30.448;2024-01-15T10:48:12;98214.63;;;3.12
49567;BMP280;35472;50.514;30.448;2024-01-15T10:50:41;98211.25;;;3.12
49567;BMP280;35472;50.514;30.448;2024-01-15T10:53:08;98201.75;;;3.00
49567;BMP280;35472;50.514;30.448;2024-01-15T10:55:35;98200.25;;;3.03
49567;BMP280;35472;50.514;30.448;2024-01-15T10:58:02;98196.84;;;3.02
49567;BMP280;35472;50.514;30.448;2024-01-15T11:00:29;98192.00;;;2.69
49567;BMP280;35472;50.514;30.448;2024-01-15T11:02:54;98191.22;;;2.93
49567;BMP280;35472;50.514;30.448;2024-01-15T11:05:21;98190.84;;;2.84
49567;BMP280;35472;50.514;30.448;2024-01-15T11:07:48;98192.66;;;3.12
49567;BMP280;35472;50.514;30.448;2024-01-15T11:10:50;98193.19;;;2.61
49567;BMP280;35472;50.514;30.448;2024-01-15T11:13:39;98176.84;;;2.66
49567;BMP280;35472;50.514;30.448;2024-01-15T11:16:07;98180.59;;;2.75
49567;BMP280;35472;50.514;30.448;2024-01-15T11:18:36;98173.41;;;2.76
49567;BMP280;35472;50.514;30.448;2024-01-15T11:28:51;98187.88;;;2.46
49567;BMP280;35472;50.514;30.448;2024-01-15T11:31:17;98187.50;;;2.52
49567;BMP280;35472;50.514;30.448;2024-01-15T11:33:49;98189.41;;;2.44
49567;BMP280;35472;50.514;30.448;2024-01-15T11:36:14;98185.97;;;2.50
49567;BMP280;35472;50.514;30.448;2024-01-15T11:38:40;98173.84;;;2.57
49567;BMP280;35472;50.514;30.448;2024-01-15T11:41:13;98178.41;;;2.49
49567;BMP280;35472;50.514;30.448;2024-01-15T11:43:40;98174.19;;;2.66
49567;BMP280;35472;50.514;30.448;2024-01-15T11:46:10;98182.16;;;2.66
49567;BMP280;35472;50.514;30.448;2024-01-15T11:48:42;98174.56;;;2.64
49567;BMP280;35472;50.514;30.448;2024-01-15T11:51:11;98172.34;;;2.56
49567;BMP280;35472;50.514;30.448;2024-01-15T11:53:45;98164.28;;;2.77
49567;BMP280;35472;50.514;30.448;2024-01-15T11:56:16;98164.28;;;2.84
49567;BMP280;35472;50.514;30.448;2024-01-15T11:58:44;98157.53;;;2.51
49567;BMP280;35472;50.514;30.448;2024-01-15T12:01:11;98170.47;;;2.42
49567;BMP280;35472;50.514;30.448;2024-01-15T12:03:39;98162.16;;;2.22
49567;BMP280;35472;50.514;30.448;2024-01-15T12:06:06;98153.81;;;2.24
49567;BMP280;35472;50.514;30.448;2024-01-15T12:08:32;98151.91;;;2.28
49567;BMP280;35472;50.514;30.448;2024-01-15T12:10:58;98144.31;;;2.37
49567;BMP280;35472;50.514;30.448;2024-01-15T12:13:23;98155.34;;;2.25
49567;BMP280;35472;50.514;30.448;2024-01-15T12:15:48;98158.72;;;2.32
49567;BMP280;35472;50.514;30.448;2024-01-15T12:18:17;98163.28;;;2.28
49567;BMP280;35472;50.514;30.448;2024-01-15T12:20:44;98161.78;;;2.06
49567;BMP280;35472;50.514;30.448;2024-01-15T12:23:12;98169.72;;;2.20
49567;BMP280;35472;50.514;30.448;2024-01-15T12:25:38;98168.59;;;2.21
49567;BMP280;35472;50.514;30.448;2024-01-15T12:28:05;98166.72;;;2.04
49567;BMP280;35472;50.514;30.448;2024-01-15T12:30:33;98151.56;;;2.04
49567;BMP280;35472;50.514;30.448;2024-01-15T12:33:01;98149.28;;;2.28
49567;BMP280;35472;50.514;30.448;2024-01-15T12:35:29;98138.25;;;2.33
49567;BMP280;35472;50.514;30.448;2024-01-15T12:37:57;98144.28;;;2.62
49567;BMP280;35472;50.514;30.448;2024-01-15T12:40:23;98153.53;;;3.16
49567;BMP280;35472;50.514;30.448;2024-01-15T12:42:49;98139.81;;;3.24
49567;BMP280;35472;50.514;30.448;2024-01-15T12:45:14;98139.03;;;3.27
49567;BMP280;35472;50.514;30.448;2024-01-15T12:47:41;98141.28;;;3.25
49567;BMP280;35472;50.514;30.448;2024-01-15T12:50:11;98143.94;;;3.25
49567;BMP280;35472;50.514;30.448;2024-01-15T12:52:37;98130.31;;;3.23
49567;BMP280;35472;50.514;30.448;2024-01-15T12:55:06;98129.75;;;2.84
49567;BMP280;35472;50.514;30.448;2024-01-15T12:57:32;98123.34;;;2.74
49567;BMP280;35472;50.514;30.448;2024-01-15T12:59:57;98127.84;;;2.91
49567;BMP280;35472;50.514;30.448;2024-01-15T13:02:25;98126.44;;;2.62
49567;BMP280;35472;50.514;30.448;2024-01-15T13:04:50;98132.47;;;2.66
49567;BMP280;35472;50.514;30.448;2024-01-15T13:07:16;98132.81;;;2.79
49567;BMP280;35472;50.514;30.448;2024-01-15T13:09:41;98131.31;;;2.74
49567;BMP280;35472;50.514;30.448;2024-01-15T13:12:08;98141.53;;;2.76
49567;BMP280;35472;50.514;30.448;2024-01-15T13:14:34;98143.06;;;2.70
49567;BMP280;35472;50.514;30.448;2024-01-15T13:16:59;98129.09;;;2.62
49567;BMP280;35472;50.514;30.448;2024-01-15T13:19:25;98138.88;;;2.76
49567;BMP280;35472;50.514;30.448;2024-01-15T13:21:50;98125.72;;;2.55
49567;BMP280;35472;50.514;30.448;2024-01-15T13:24:21;98123.06;;;2.40
49567;BMP280;35472;50.514;30.448;2024-01-15T13:26:46;98129.41;;;2.78
49567;BMP280;35472;50.514;30.448;2024-01-15T13:29:13;98117.00;;;2.33
49567;BMP280;35472;50.514;30.448;2024-01-15T13:31:38;98120.03;;;2.49
49567;BMP280;35472;50.514;30.448;2024-01-15T13:34:04;98119.72;;;2.22
49567;BMP280;35472;50.514;30.448;2024-01-15T13:36:31;98111.38;;;2.20
49567;BMP280;35472;50.514;30.448;2024-01-15T13:38:56;98122.69;;;2.31
49567;BMP280;35472;50.514;30.448;2024-01-15T13:41:24;98118.59;;;2.09
49567;BMP280;35472;50.514;30.448;2024-01-15T13:43:55;98117.06;;;2.01
49567;BMP280;35472;50.514;30.448;2024-01-15T13:46:24;98123.50;;;1.89
49567;BMP280;35472;50.514;30.448;2024-01-15T13:48:53;98120.13;;;1.75
49567;BMP280;35472;50.514;30.448;2024-01-15T13:51:21;98112.56;;;1.80
49567;BMP280;35472;50.514;30.448;2024-01-15T13:53:47;98116.69;;;1.63
49567;BMP280;35472;50.514;30.448;2024-01-15T13:56:13;98118.97;;;1.72
49567;BMP280;35472;50.514;30.448;2024-01-15T13:58:38;98120.47;;;1.52
49567;BMP280;35472;50.514;30.448;2024-01-15T14:01:03;98122.34;;;1.44
49567;BMP280;35472;50.514;30.448;2024-01-15T14:03:31;98112.53;;;1.62
49567;BMP280;35472;50.514;30.448;2024-01-15T14:05:56;98120.84;;;1.54
49567;BMP280;35472;50.514;30.448;2024-01-15T14:08:22;98117.03;;;1.37
49567;BMP280;35472;50.514;30.448;2024-01-15T14:10:47;98116.66;;;1.35